Time;durP1;ratioP1;P1;durP2;ratioP2;P2;SDS_P1;SDS_P2;PMS_P1;PMS_P2;Temp;Humidity;BMP_temperature;BMP_pressure;BME280_temperature;BME280_humidity;BME280_pressure;Samples;Min_cycle;Max_cycle;Signal;HPM_P1;HPM_P2
2023/02/22 00:02:09;;;;;;;6.68;4.22;;;-0.60;99.90;;;;;;4955792;28;20047;-64
2023/02/22 00:04:38;;;;;;;7.68;3.92;;;-0.60;99.90;;;;;;4954319;28;20082;-64
2023/02/22 00:07:06;;;;;;;7.03;4.63;;;-0.60;99.90;;;;;;4953413;28;20081;-68
2023/02/22 00:09:33;;;;;;;5.72;4.80;;;-0.60;99.90;;;;;;4955370;28;20054;-64
2023/02/22 00:12:00;;;;;;;5.90;3.80;;;-0.60;99.90;;;;;;4960662;28;20090;-65
2023/02/22 00:14:27;;;;;;;6.75;4.32;;;-0.50;99.90;;;;;;4959489;28;20427;-65
2023/02/22 00:16:58;;;;;;;8.73;4.65;;;-0.50;99.90;;;;;;4960283;28;20063;-65
2023/02/22 00:19:26;;;;;;;5.72;4.57;;;-0.60;99.90;;;;;;4957693;28;20133;-63
2023/02/22 00:21:54;;;;;;;5.70;3.92;;;-0.50;99.90;;;;;;4959102;28;20047;-66
2023/02/22 00:24:23;;;;;;;6.68;4.18;;;-0.50;99.90;;;;;;4960566;28;21156;-64
2023/02/22 00:26:54;;;;;;;5.47;4.60;;;-0.50;99.90;;;;;;4959541;28;20560;-64
2023/02/22 00:29:22;;;;;;;4.50;3.67;;;-0.50;99.90;;;;;;4955156;28;20051;-64
2023/02/22 00:31:49;;;;;;;4.20;3.50;;;-0.50;99.90;;;;;;4959243;28;20061;-65
2023/02/22 00:34:16;;;;;;;5.03;3.63;;;-0.50;99.90;;;;;;4961793;28;20827;-64
2023/02/22 00:36:49;;;;;;;4.70;3.60;;;-0.50;99.90;;;;;;4964819;28;20046;-66
2023/02/22 00:39:17;;;;;;;6.28;4.43;;;-0.50;99.90;;;;;;4956347;28;20509;-64
2023/02/22 00:41:44;;;;;;;6.05;3.55;;;-0.40;99.90;;;;;;4956939;28;20061;-63
2023/02/22 00:44:11;;;;;;;4.88;3.65;;;-0.50;99.90;;;;;;4959219;28;20054;-65
2023/02/22 00:46:38;;;;;;;5.68;4.00;;;-0.50;99.90;;;;;;4957125;28;20047;-65
2023/02/22 00:49:05;;;;;;;4.25;3.35;;;-0.50;99.90;;;;;;4958873;28;20545;-65
2023/02/22 00:51:32;;;;;;;5.13;4.07;;;-0.50;99.90;;;;;;4959455;28;20050;-66
2023/02/22 00:54:00;;;;;;;4.95;4.00;;;-0.50;99.90;;;;;;4959429;28;20090;-65
2023/02/22 00:56:27;;;;;;;4.57;3.95;;;-0.50;99.90;;;;;;4958577;28;20598;-65
2023/02/22 00:58:54;;;;;;;4.43;3.75;;;-0.50;99.90;;;;;;4955347;28;20055;-67
2023/02/22 01:01:22;;;;;;;4.30;3.47;;;-0.50;99.90;;;;;;4957287;28;21117;-65
2023/02/22 01:03:50;;;;;;;4.00;3.45;;;-0.40;99.90;;;;;;4959026;28;20162;-65
2023/02/22 01:06:17;;;;;;;4.38;3.75;;;-0.40;99.90;;;;;;4959393;28;20129;-66
2023/02/22 01:08:47;;;;;;;5.88;4.57;;;-0.40;99.90;;;;;;4963622;28;20170;-64
2023/02/22 01:11:16;;;;;;;4.35;3.50;;;-0.40;99.90;;;;;;4954885;28;20046;-65
2023/02/22 01:13:44;;;;;;;4.43;3.65;;;-0.30;99.90;;;;;;4951733;28;20062;-65
2023/02/22 01:16:11;;;;;;;5.03;4.32;;;-0.30;99.90;;;;;;4959174;28;20493;-65
2023/02/22 01:18:37;;;;;;;4.72;3.50;;;-0.30;99.90;;;;;;4959319;28;20062;-65
2023/02/22 01:21:05;;;;;;;4.50;3.40;;;-0.30;99.90;;;;;;4960013;28;20086;-65
2023/02/22 01:23:32;;;;;;;4.95;3.42;;;-0.30;99.90;;;;;;4958707;28;20138;-64
2023/02/22 01:25:59;;;;;;;5.85;3.17;;;-0.30;99.90;;;;;;4960406;28;20101;-66
2023/02/22 01:28:28;;;;;;;7.90;3.60;;;-0.30;99.90;;;;;;4956227;28;20043;-65
2023/02/22 01:30:55;;;;;;;4.25;3.67;;;-0.30;99.90;;;;;;4956405;28;20061;-65
2023/02/22 01:33:24;;;;;;;5.28;4.13;;;-0.30;99.90;;;;;;4956428;28;20042;-64
2023/02/22 01:35:51;;;;;;;5.80;4.63;;;-0.30;99.90;;;;;;4956953;28;20047;-65
2023/02/22 01:38:18;;;;;;;7.85;3.42;;;-0.30;99.90;;;;;;4955754;28;20429;-64
2023/02/22 01:40:50;;;;;;;6.53;3.92;;;-0.20;99.90;;;;;;4956243;28;21155;-65
2023/02/22 01:43:24;;;;;;;4.55;3.17;;;-0.20;99.90;;;;;;4956437;28;20102;-64
2023/02/22 01:46:19;;;;;;;4.13;3.22;;;-0.30;99.90;;;;;;4954347;28;20047;-64
2023/02/22 01:48:52;;;;;;;4.28;3.13;;;-0.30;99.90;;;;;;4957367;28;20043;-64
2023/02/22 01:51:42;;;;;;;5.18;3.60;;;-0.30;99.90;;;;;;4968691;28;20555;-65
2023/02/22 01:54:12;;;;;;;4.20;3.17;;;-0.30;99.90;;;;;;4956111;28;20669;-65
2023/02/22 01:56:52;;;;;;;5.68;4.03;;;-0.30;99.90;;;;;;4958112;28;20074;-66
2023/02/22 01:59:21;;;;;;;5.72;3.35;;;-0.20;99.90;;;;;;4955979;28;20129;-67
2023/02/22 02:01:48;;;;;;;3.95;3.03;;;-0.20;99.90;;;;;;4954230;28;20145;-66
2023/02/22 02:04:24;;;;;;;9.00;3.67;;;-0.30;99.90;;;;;;4961862;28;20058;-65
2023/02/22 02:06:57;;;;;;;8.73;4.88;;;-0.30;99.90;;;;;;4957327;28;20145;-66
2023/02/22 02:09:43;;;;;;;5.22;3.35;;;-0.30;99.90;;;;;;4957120;28;20059;-65
2023/02/22 02:12:13;;;;;;;3.47;3.17;;;-0.30;99.90;;;;;;4972741;28;20046;-66
2023/02/22 02:14:42;;;;;;;;;;;-0.30;99.90;;;;;;4955455;28;20047;-65
2023/02/22 02:17:12;;;;;;;3.88;2.60;;;-0.30;99.90;;;;;;4949664;28;19936;-64
2023/02/22 02:19:58;;;;;;;5.53;2.88;;;-0.20;99.90;;;;;;4956555;28;20051;-64
2023/02/22 02:22:30;;;;;;;3.60;2.80;;;-0.20;99.90;;;;;;4956404;28;20043;-66
2023/02/22 02:25:04;;;;;;;5.53;2.88;;;-0.20;99.90;;;;;;4957685;28;20059;-67
2023/02/22 02:27:33;;;;;;;6.18;2.90;;;-0.20;99.90;;;;;;4958066;28;20046;-67
2023/02/22 02:30:37;;;;;;;5.03;3.28;;;-0.20;99.90;;;;;;4958498;28;20055;-67
2023/02/22 02:33:40;;;;;;;5.15;2.72;;;-0.20;99.90;;;;;;4953813;28;20090;-65
2023/02/22 02:36:31;;;;;;;3.90;3.58;;;-0.20;99.90;;;;;;4955969;28;21400;-65
2023/02/22 02:39:14;;;;;;;3.13;2.70;;;-0.30;99.90;;;;;;4958439;28;20064;-65
2023/02/22 02:41:50;;;;;;;4.10;3.40;;;-0.30;99.90;;;;;;4955892;28;20145;-65
2023/02/22 02:44:22;;;;;;;4.20;2.72;;;-0.20;99.90;;;;;;4957557;28;20364;-67
2023/02/22 02:46:56;;;;;;;5.63;3.00;;;-0.20;99.90;;;;;;4954452;28;20055;-65
2023/02/22 02:49:47;;;;;;;4.05;3.30;;;-0.20;99.90;;;;;;4951945;28;20047;-65
2023/02/22 02:52:16;;;;;;;4.82;3.42;;;-0.30;99.90;;;;;;4955162;28;20113;-67
2023/02/22 02:54:47;;;;;;;4.10;3.20;;;-0.30;99.90;;;;;;4958789;28;20142;-64
2023/02/22 02:57:14;;;;;;;5.97;3.45;;;-0.30;99.90;;;;;;4955441;28;20154;-67
2023/02/22 02:59:41;;;;;;;3.92;2.88;;;-0.30;99.90;;;;;;4955597;28;20476;-65
2023/02/22 03:02:43;;;;;;;3.65;3.35;;;-0.30;99.90;;;;;;4955385;28;20054;-66
2023/02/22 03:05:34;;;;;;;4.40;3.67;;;-0.30;99.90;;;;;;4951204;28;20055;-65
2023/02/22 03:08:24;;;;;;;4.03;2.80;;;-0.30;99.90;;;;;;4954374;28;20047;-65
2023/02/22 03:11:13;;;;;;;6.22;3.17;;;-0.30;99.90;;;;;;4954793;28;20150;-66
2023/02/22 03:14:01;;;;;;;4.05;2.90;;;-0.30;99.90;;;;;;4953581;28;20078;-67
2023/02/22 03:16:49;;;;;;;4.45;3.03;;;-0.30;99.90;;;;;;4971561;28;20065;-65
2023/02/22 03:19:25;;;;;;;3.63;2.95;;;-0.30;99.90;;;;;;4953133;28;20051;-65
2023/02/22 03:21:58;;;;;;;5.45;3.10;;;-0.30;99.90;;;;;;4966750;28;20086;-66
2023/02/22 03:25:06;;;;;;;3.80;2.63;;;-0.30;99.90;;;;;;4956194;28;20491;-65
2023/02/22 03:27:42;;;;;;;5.35;3.13;;;-0.20;99.90;;;;;;4953317;28;20082;-67
2023/02/22 03:30:18;;;;;;;4.75;3.00;;;-0.20;99.90;;;;;;4956469;28;20137;-65
2023/02/22 03:32:51;;;;;;;3.60;2.88;;;-0.20;99.90;;;;;;4971534;28;20142;-65
2023/02/22 03:35:22;;;;;;;4.43;3.08;;;-0.20;99.90;;;;;;4957334;28;20866;-65
2023/02/22 03:37:54;;;;;;;5.72;4.35;;;-0.20;99.90;;;;;;4955324;28;20055;-67
2023/02/22 03:40:27;;;;;;;5.50;3.15;;;-0.20;99.90;;;;;;4953367;28;20063;-65
2023/02/22 03:43:06;;;;;;;3.60;2.78;;;-0.20;99.90;;;;;;4951969;28;20051;-67
2023/02/22 03:45:42;;;;;;;4.05;2.97;;;-0.20;99.90;;;;;;4957271;28;20066;-65
2023/02/22 03:48:31;;;;;;;3.10;2.80;;;-0.20;99.90;;;;;;4971134;28;20682;-65
2023/02/22 03:51:03;;;;;;;4.20;2.88;;;-0.20;99.90;;;;;;4967968;28;20584;-67
2023/02/22 03:53:36;;;;;;;3.35;2.67;;;-0.20;99.90;;;;;;4968510;28;20051;-64
2023/02/22 03:56:09;;;;;;;5.47;3.25;;;-0.20;99.90;;;;;;4971451;28;20110;-67
2023/02/22 03:58:39;;;;;;;5.05;3.25;;;-0.20;99.90;;;;;;4972370;28;20062;-64
2023/02/22 04:01:06;;;;;;;3.88;2.75;;;-0.20;99.90;;;;;;4951386;28;20054;-67
2023/02/22 04:03:33;;;;;;;3.60;2.50;;;-0.20;99.90;;;;;;4958583;28;20051;-64
2023/02/22 04:06:00;;;;;;;3.65;2.95;;;-0.20;99.90;;;;;;4968195;28;20062;-66
2023/02/22 04:08:29;;;;;;;2.90;2.13;;;-0.30;99.90;;;;;;4968628;28;20162;-67
2023/02/22 04:10:56;;;;;;;3.28;2.67;;;-0.30;99.90;;;;;;4954631;28;20149;-65
2023/02/22 04:13:26;;;;;;;3.30;2.70;;;-0.30;99.90;;;;;;4957673;28;20412;-65
2023/02/22 04:15:53;;;;;;;5.28;2.95;;;-0.30;99.90;;;;;;4953757;28;20055;-64
2023/02/22 04:18:20;;;;;;;4.28;2.92;;;-0.30;99.90;;;;;;4953530;28;20050;-65
2023/02/22 04:20:48;;;;;;;5.60;2.40;;;-0.30;99.90;;;;;;4959884;28;20138;-64
2023/02/22 04:23:25;;;;;;;4.85;3.03;;;-0.30;99.90;;;;;;4950124;28;20783;-64
2023/02/22 04:25:53;;;;;;;4.07;2.92;;;-0.30;99.90;;;;;;4949820;28;20050;-64
2023/02/22 04:28:21;;;;;;;3.53;2.67;;;-0.30;99.90;;;;;;4952428;28;20047;-64
2023/02/22 04:30:53;;;;;;;3.85;2.55;;;-0.20;99.90;;;;;;4951970;28;20472;-66
2023/02/22 04:33:21;;;;;;;5.88;4.28;;;-0.20;99.90;;;;;;4951214;28;20051;-67
2023/02/22 04:35:48;;;;;;;3.97;2.92;;;-0.20;99.90;;;;;;4956199;28;20129;-65
2023/02/22 04:38:15;;;;;;;3.30;2.72;;;-0.20;99.90;;;;;;4955471;28;20402;-69
2023/02/22 04:40:42;;;;;;;7.40;3.17;;;-0.20;99.90;;;;;;4950318;28;20094;-66
2023/02/22 04:43:09;;;;;;;6.05;3.22;;;-0.20;99.90;;;;;;4955072;28;20078;-66
2023/02/22 04:45:36;;;;;;;4.10;2.58;;;-0.20;99.90;;;;;;4959639;28;20106;-65
2023/02/22 04:48:04;;;;;;;10.52;2.90;;;-0.30;99.90;;;;;;4972113;28;20133;-65
2023/02/22 04:50:31;;;;;;;3.17;2.72;;;-0.20;99.90;;;;;;4952695;28;20097;-66
2023/02/22 04:52:58;;;;;;;5.30;2.85;;;-0.20;99.90;;;;;;4954415;28;20055;-65
2023/02/22 04:55:26;;;;;;;9.50;4.45;;;-0.20;99.90;;;;;;4957177;28;20573;-64
2023/02/22 04:57:55;;;;;;;5.13;3.38;;;-0.20;99.90;;;;;;4961311;28;20050;-65
2023/02/22 05:00:22;;;;;;;8.45;3.17;;;-0.20;99.90;;;;;;4962805;28;20509;-64
2023/02/22 05:02:54;;;;;;;5.28;3.35;;;-0.20;99.90;;;;;;4963397;28;20043;-64
2023/02/22 05:05:21;;;;;;;6.72;2.95;;;-0.20;99.90;;;;;;4957602;28;20074;-63
2023/02/22 05:07:48;;;;;;;14.23;2.92;;;-0.20;99.90;;;;;;4961058;28;20055;-64
2023/02/22 05:10:16;;;;;;;5.60;3.38;;;-0.20;99.90;;;;;;4959290;28;20059;-63
2023/02/22 05:12:43;;;;;;;8.40;3.22;;;-0.20;99.90;;;;;;4954886;28;20047;-64
2023/02/22 05:15:10;;;;;;;6.80;4.03;;;-0.30;99.90;;;;;;4956262;28;20047;-64
2023/02/22 05:17:36;;;;;;;8.48;3.28;;;-0.20;99.90;;;;;;4959964;28;20053;-64
2023/02/22 05:20:04;;;;;;;3.78;2.63;;;-0.20;99.90;;;;;;4958484;28;20054;-64
2023/02/22 05:22:30;;;;;;;7.25;2.90;;;-0.20;99.90;;;;;;4959137;28;20051;-65
2023/02/22 05:24:57;;;;;;;7.80;3.60;;;-0.20;99.90;;;;;;4959303;28;20050;-64
2023/02/22 05:27:24;;;;;;;6.53;2.95;;;-0.20;99.90;;;;;;4954644;28;20043;-64
2023/02/22 05:29:51;;;;;;;8.88;3.03;;;-0.20;99.90;;;;;;4957178;28;20130;-64
2023/02/22 05:32:18;;;;;;;3.75;2.70;;;-0.20;99.90;;;;;;4958689;28;20039;-65
2023/02/22 05:34:45;;;;;;;9.82;5.28;;;-0.20;99.90;;;;;;4958643;28;20051;-64
2023/02/22 05:37:12;;;;;;;3.72;3.40;;;-0.20;99.90;;;;;;4958125;28;20053;-66
2023/02/22 05:39:38;;;;;;;6.40;2.90;;;-0.20;99.90;;;;;;4957621;28;20408;-65
2023/02/22 05:42:05;;;;;;;4.13;2.75;;;-0.20;99.90;;;;;;4958475;28;20057;-64
2023/02/22 05:44:32;;;;;;;7.53;3.17;;;-0.20;99.90;;;;;;4955364;28;20065;-65
2023/02/22 05:46:59;;;;;;;16.25;5.65;;;-0.30;99.90;;;;;;4958610;28;20424;-65
2023/02/22 05:49:26;;;;;;;20.70;4.18;;;-0.30;99.90;;;;;;4957130;28;20145;-65
2023/02/22 05:51:58;;;;;;;3.55;2.83;;;-0.30;99.90;;;;;;4955207;28;20046;-65
2023/02/22 05:54:25;;;;;;;18.75;5.93;;;-0.30;99.90;;;;;;4957480;28;20376;-66
2023/02/22 05:56:52;;;;;;;15.95;4.82;;;-0.30;99.90;;;;;;4958735;28;20059;-66
2023/02/22 05:59:19;;;;;;;12.50;3.30;;;-0.30;99.90;;;;;;4952932;28;20126;-65
2023/02/22 06:01:46;;;;;;;9.20;3.35;;;-0.30;99.90;;;;;;4953438;28;20166;-67
2023/02/22 06:04:13;;;;;;;9.57;3.80;;;-0.30;99.90;;;;;;4956705;28;20047;-66
2023/02/22 06:06:40;;;;;;;14.93;3.70;;;-0.30;99.90;;;;;;4955404;28;20055;-64
2023/02/22 06:09:07;;;;;;;8.68;3.33;;;-0.30;99.90;;;;;;4952759;28;20570;-65
2023/02/22 06:11:34;;;;;;;5.05;2.85;;;-0.30;99.90;;;;;;4957502;28;20074;-65
2023/02/22 06:14:00;;;;;;;3.70;2.65;;;-0.30;99.90;;;;;;4955525;28;20055;-64
2023/02/22 06:16:27;;;;;;;8.60;3.17;;;-0.20;99.90;;;;;;4953297;28;20675;-63
2023/02/22 06:18:54;;;;;;;5.70;2.63;;;-0.20;99.90;;;;;;4958764;28;20058;-65
2023/02/22 06:21:21;;;;;;;3.38;2.38;;;-0.20;99.90;;;;;;4957979;28;20077;-65
2023/02/22 06:23:48;;;;;;;6.68;2.50;;;-0.20;99.90;;;;;;4958455;28;20055;-64
2023/02/22 06:26:16;;;;;;;5.05;2.75;;;-0.10;99.90;;;;;;4958124;28;20046;-64
2023/02/22 06:28:45;;;;;;;4.63;2.83;;;-0.10;99.90;;;;;;4955584;28;20142;-64
2023/02/22 06:31:12;;;;;;;9.93;2.65;;;-0.20;99.90;;;;;;4956193;28;20060;-63
2023/02/22 06:33:39;;;;;;;4.63;2.90;;;-0.10;99.90;;;;;;4954642;28;20059;-66
2023/02/22 06:36:06;;;;;;;8.40;3.05;;;-0.10;99.90;;;;;;4954336;28;20378;-65
2023/02/22 06:38:33;;;;;;;5.97;3.42;;;-0.10;99.90;;;;;;4954929;28;20055;-65
2023/02/22 06:41:01;;;;;;;4.65;2.90;;;-0.10;99.90;;;;;;4958892;28;20084;-65
2023/02/22 06:43:28;;;;;;;9.27;3.35;;;-0.10;99.90;;;;;;4956646;28;20042;-66
2023/02/22 06:45:55;;;;;;;4.05;2.55;;;-0.20;99.90;;;;;;4957591;28;20051;-65
2023/02/22 06:48:22;;;;;;;7.63;2.90;;;-0.10;99.90;;;;;;4954793;28;20058;-65
2023/02/22 06:50:49;;;;;;;6.43;2.63;;;-0.10;99.90;;;;;;4960961;28;20672;-67
2023/02/22 06:53:16;;;;;;;23.05;3.47;;;-0.10;99.90;;;;;;4956443;28;20078;-66
2023/02/22 06:55:42;;;;;;;13.95;3.05;;;-0.10;99.90;;;;;;4957250;28;21599;-65
2023/02/22 06:58:09;;;;;;;6.55;2.88;;;-0.10;99.90;;;;;;4959601;28;20057;-68
2023/02/22 07:00:36;;;;;;;6.80;2.53;;;-0.10;99.90;;;;;;4956046;28;20086;-66
2023/02/22 07:03:03;;;;;;;8.45;3.28;;;-0.10;99.90;;;;;;4955458;28;20050;-67
2023/02/22 07:05:30;;;;;;;9.88;3.03;;;-0.10;99.90;;;;;;4954282;28;20047;-66
2023/02/22 07:08:04;;;;;;;4.60;2.83;;;-0.20;99.90;;;;;;4956671;28;20057;-65
2023/02/22 07:10:32;;;;;;;6.93;2.63;;;-0.10;99.90;;;;;;4957813;28;20533;-65
2023/02/22 07:12:59;;;;;;;3.10;2.55;;;-0.20;99.90;;;;;;4958244;28;20203;-66
2023/02/22 07:15:28;;;;;;;5.20;3.25;;;-0.20;99.90;;;;;;4951678;28;21685;-67
2023/02/22 07:17:56;;;;;;;4.72;2.92;;;-0.30;99.90;;;;;;4954737;28;20055;-68
2023/02/22 07:20:24;;;;;;;8.77;2.47;;;-0.30;99.90;;;;;;4952131;28;21158;-66
2023/02/22 07:22:52;;;;;;;6.90;3.30;;;-0.20;99.90;;;;;;4958614;28;20062;-68
2023/02/22 07:25:19;;;;;;;5.70;3.17;;;-0.20;99.90;;;;;;4950850;28;20483;-67
2023/02/22 07:27:47;;;;;;;7.43;3.13;;;-0.20;99.90;;;;;;4957756;28;20057;-67
2023/02/22 07:30:18;;;;;;;6.25;2.95;;;-0.20;99.90;;;;;;4951282;28;20134;-67
2023/02/22 07:32:46;;;;;;;4.55;2.80;;;-0.20;99.90;;;;;;4957906;28;20050;-68
2023/02/22 07:35:19;;;;;;;5.50;2.90;;;-0.20;99.90;;;;;;4952956;28;20193;-67
2023/02/22 07:37:46;;;;;;;4.60;2.40;;;-0.20;99.90;;;;;;4952987;28;20093;-68
2023/02/22 07:40:15;;;;;;;3.83;2.58;;;-0.10;99.90;;;;;;4916266;28;20050;-67
2023/02/22 07:42:51;;;;;;;6.80;2.47;;;-0.10;99.90;;;;;;4954281;28;20046;-67
2023/02/22 07:45:18;;;;;;;5.32;2.13;;;-0.10;99.90;;;;;;4953059;28;20058;-68
2023/02/22 07:47:46;;;;;;;3.55;2.25;;;-0.10;99.90;;;;;;4956802;28;20055;-66
2023/02/22 07:50:17;;;;;;;5.85;2.80;;;-0.10;99.90;;;;;;4956102;28;20187;-67
2023/02/22 07:52:46;;;;;;;6.80;2.80;;;-0.10;99.90;;;;;;4957913;28;20188;-66
2023/02/22 07:55:19;;;;;;;6.50;3.30;;;-0.10;99.90;;;;;;4952765;28;20509;-67
2023/02/22 07:57:47;;;;;;;5.25;2.85;;;-0.10;99.90;;;;;;4951944;28;20051;-67
2023/02/22 08:00:20;;;;;;;3.03;2.50;;;0.00;99.90;;;;;;4954546;28;20065;-66
2023/02/22 08:02:47;;;;;;;2.72;2.30;;;0.00;99.90;;;;;;4949641;28;20138;-66
2023/02/22 08:05:14;;;;;;;5.20;1.75;;;0.00;99.90;;;;;;4952220;28;20047;-66
2023/02/22 08:07:42;;;;;;;5.90;1.85;;;-0.10;99.90;;;;;;4953926;28;20129;-66
2023/02/22 08:10:09;;;;;;;3.67;2.00;;;0.00;99.90;;;;;;4954194;28;20063;-66
2023/02/22 08:12:37;;;;;;;11.80;2.50;;;0.00;99.90;;;;;;4953913;28;20043;-66
2023/02/22 08:15:06;;;;;;;3.63;2.13;;;-0.10;99.90;;;;;;4952891;28;20051;-66
2023/02/22 08:17:33;;;;;;;4.82;2.80;;;0.00;99.90;;;;;;4954317;28;20055;-66
2023/02/22 08:20:00;;;;;;;4.47;2.15;;;0.00;99.90;;;;;;4954050;28;20158;-67
2023/02/22 08:22:27;;;;;;;4.82;2.30;;;0.00;99.90;;;;;;4955742;28;20716;-68
2023/02/22 08:24:54;;;;;;;3.20;1.90;;;-0.10;99.90;;;;;;4955262;28;20138;-67
2023/02/22 08:27:24;;;;;;;5.28;1.98;;;0.00;99.90;;;;;;4953539;28;20199;-65
2023/02/22 08:29:51;;;;;;;5.25;3.10;;;-0.10;99.90;;;;;;4951775;28;20540;-66
2023/02/22 08:32:19;;;;;;;4.75;2.53;;;-0.10;99.90;;;;;;4956679;28;20762;-67
2023/02/22 08:34:46;;;;;;;2.97;2.40;;;-0.10;99.90;;;;;;4956854;28;20101;-67
2023/02/22 08:37:15;;;;;;;3.53;2.53;;;-0.20;99.90;;;;;;4958134;28;20543;-66
2023/02/22 08:39:42;;;;;;;3.08;2.47;;;-0.20;99.90;;;;;;4961111;28;20079;-66
2023/02/22 08:42:09;;;;;;;8.98;2.88;;;-0.20;99.90;;;;;;4958896;28;20528;-66
2023/02/22 08:44:37;;;;;;;6.72;2.80;;;-0.10;99.90;;;;;;4955524;28;20157;-68
2023/02/22 08:47:05;;;;;;;5.40;2.70;;;-0.20;99.90;;;;;;4958493;28;20059;-66
2023/02/22 08:49:32;;;;;;;3.40;2.47;;;-0.10;99.90;;;;;;4957189;28;20051;-66
2023/02/22 08:51:59;;;;;;;7.03;2.60;;;-0.10;99.90;;;;;;4958060;28;20062;-66
2023/02/22 08:54:26;;;;;;;10.70;3.75;;;-0.10;99.90;;;;;;4960082;28;20043;-67
2023/02/22 08:56:53;;;;;;;5.93;3.03;;;-0.10;99.90;;;;;;4957848;28;20059;-66
2023/02/22 08:59:20;;;;;;;7.07;3.10;;;-0.10;99.90;;;;;;4955778;28;20416;-68
2023/02/22 09:01:47;;;;;;;8.73;4.70;;;-0.10;99.90;;;;;;4955100;28;20049;-68
2023/02/22 09:04:14;;;;;;;4.60;2.67;;;-0.10;99.90;;;;;;4958147;28;20046;-66
2023/02/22 09:06:41;;;;;;;9.68;3.30;;;-0.10;99.90;;;;;;4959592;28;20050;-67
2023/02/22 09:09:08;;;;;;;10.38;3.63;;;0.00;99.90;;;;;;4955599;28;20546;-66
2023/02/22 09:11:35;;;;;;;12.60;2.67;;;0.00;99.90;;;;;;4959276;28;20081;-67
2023/02/22 09:14:02;;;;;;;6.43;3.15;;;0.00;99.90;;;;;;4958847;28;20082;-67
2023/02/22 09:16:30;;;;;;;3.45;2.45;;;0.10;99.90;;;;;;4955284;28;20046;-67
2023/02/22 09:18:57;;;;;;;15.32;4.53;;;0.20;99.90;;;;;;4959279;28;20055;-65
2023/02/22 09:21:24;;;;;;;3.65;2.97;;;0.20;99.90;;;;;;4957183;28;20055;-66
2023/02/22 09:23:53;;;;;;;2.65;2.42;;;0.30;99.90;;;;;;4956356;28;20104;-66
2023/02/22 09:26:22;;;;;;;4.67;2.83;;;0.40;99.90;;;;;;4957714;28;20039;-66
2023/02/22 09:28:49;;;;;;;4.18;2.10;;;0.50;99.90;;;;;;4956045;28;20057;-67
2023/02/22 09:31:16;;;;;;;2.80;2.45;;;0.50;99.90;;;;;;4954186;28;20512;-66
2023/02/22 09:33:44;;;;;;;7.78;2.75;;;0.50;99.90;;;;;;4955737;28;20106;-66
2023/02/22 09:36:13;;;;;;;9.10;3.13;;;0.60;99.90;;;;;;4955440;28;20051;-69
2023/02/22 09:38:40;;;;;;;5.50;2.53;;;0.60;99.90;;;;;;4959729;28;20054;-66
2023/02/22 09:41:19;;;;;;;4.35;2.13;;;0.60;99.90;;;;;;4954705;28;20503;-66
2023/02/22 09:44:05;;;;;;;7.78;2.33;;;0.50;99.90;;;;;;4957889;28;20050;-66
2023/02/22 09:46:37;;;;;;;15.35;4.32;;;0.40;99.90;;;;;;4958852;28;20065;-67
2023/02/22 09:49:19;;;;;;;3.38;3.08;;;0.40;99.90;;;;;;4954466;28;20490;-68
2023/02/22 09:52:00;;;;;;;8.65;2.88;;;0.40;99.90;;;;;;4957329;28;20061;-66
2023/02/22 09:54:36;;;;;;;9.40;3.25;;;0.40;99.90;;;;;;4959538;28;20074;-65
2023/02/22 09:57:10;;;;;;;7.70;2.80;;;0.50;99.90;;;;;;4957305;28;20046;-66
2023/02/22 09:59:47;;;;;;;5.55;3.50;;;0.40;99.90;;;;;;4955881;28;20049;-67
2023/02/22 10:02:36;;;;;;;6.00;3.33;;;0.50;99.90;;;;;;4957969;28;20082;-67
2023/02/22 10:05:19;;;;;;;6.45;2.97;;;0.50;99.90;;;;;;4954346;28;20680;-67
2023/02/22 10:07:53;;;;;;;10.32;4.68;;;0.50;99.90;;;;;;4955965;28;20058;-67
2023/02/22 10:10:32;;;;;;;12.43;4.25;;;0.50;99.90;;;;;;4957786;28;20059;-67
2023/02/22 10:13:29;;;;;;;7.40;4.55;;;0.50;99.90;;;;;;4956530;28;20059;-68
2023/02/22 10:16:10;;;;;;;17.65;4.93;;;0.50;99.90;;;;;;4955717;28;20047;-66
2023/02/22 10:19:15;;;;;;;8.10;4.20;;;0.50;99.90;;;;;;4956381;28;20047;-67
2023/02/22 10:21:56;;;;;;;11.80;4.78;;;0.40;99.90;;;;;;4954276;28;20542;-67
2023/02/22 10:24:52;;;;;;;8.32;4.88;;;0.40;99.90;;;;;;4957214;28;20070;-66
2023/02/22 10:27:38;;;;;;;8.00;5.65;;;0.30;99.90;;;;;;4954442;28;20065;-65
2023/02/22 10:30:16;;;;;;;7.63;5.28;;;0.30;99.90;;;;;;4954572;28;20047;-66
2023/02/22 10:32:57;;;;;;;10.05;4.78;;;0.20;99.90;;;;;;4956007;28;20050;-66
2023/02/22 10:35:31;;;;;;;9.93;5.05;;;0.20;99.90;;;;;;4955224;28;20051;-67
2023/02/22 10:38:18;;;;;;;10.43;5.05;;;0.20;99.90;;;;;;4956492;28;20047;-66
2023/02/22 10:40:55;;;;;;;11.70;5.47;;;0.20;99.90;;;;;;4958769;28;20058;-67
2023/02/22 10:43:22;;;;;;;9.75;4.90;;;0.20;99.90;;;;;;4955389;28;20136;-67
2023/02/22 10:45:54;;;;;;;8.07;4.50;;;0.20;99.90;;;;;;4957344;28;20039;-66
2023/02/22 10:48:25;;;;;;;9.05;4.97;;;0.20;99.90;;;;;;4956303;28;20083;-66
2023/02/22 10:50:57;;;;;;;11.45;6.20;;;0.20;99.90;;;;;;4958406;28;20125;-65
2023/02/22 10:53:26;;;;;;;6.07;4.90;;;0.20;99.90;;;;;;4950122;28;20050;-67
2023/02/22 10:56:14;;;;;;;19.92;6.40;;;0.20;99.90;;;;;;4957051;28;20048;-65
2023/02/22 10:58:43;;;;;;;22.95;5.82;;;0.20;99.90;;;;;;4956013;28;20102;-67
2023/02/22 11:01:32;;;;;;;18.10;6.13;;;0.30;99.90;;;;;;4955785;28;20062;-66
2023/02/22 11:04:17;;;;;;;6.57;4.25;;;0.30;99.90;;;;;;4956022;28;20042;-66
2023/02/22 11:06:47;;;;;;;10.90;4.72;;;0.30;99.90;;;;;;4957351;28;20046;-66
2023/02/22 11:09:22;;;;;;;10.30;4.90;;;0.40;99.90;;;;;;4953403;28;20058;-67
2023/02/22 11:12:06;;;;;;;17.20;5.72;;;0.40;99.90;;;;;;4961427;28;20125;-68
2023/02/22 11:14:33;;;;;;;9.48;4.80;;;0.40;99.90;;;;;;4954983;28;20050;-68
2023/02/22 11:17:06;;;;;;;22.10;6.22;;;0.40;99.90;;;;;;4956817;28;20055;-66
2023/02/22 11:19:37;;;;;;;9.52;5.35;;;0.50;99.90;;;;;;4956581;28;20101;-67
2023/02/22 11:22:26;;;;;;;7.95;4.63;;;0.50;99.90;;;;;;4957638;28;20138;-68
2023/02/22 11:25:00;;;;;;;8.48;4.20;;;0.60;99.90;;;;;;4954269;28;20082;-66
2023/02/22 11:27:40;;;;;;;10.30;5.43;;;0.60;99.90;;;;;;4953834;28;20050;-67
2023/02/22 11:30:25;;;;;;;5.97;3.92;;;0.70;99.90;;;;;;4954318;28;20137;-65
2023/02/22 11:33:01;;;;;;;6.13;4.97;;;0.80;99.90;;;;;;4956549;28;20065;-66
2023/02/22 11:35:28;;;;;;;13.43;5.88;;;0.80;99.90;;;;;;4954220;28;20046;-66
2023/02/22 11:38:20;;;;;;;9.93;5.22;;;0.70;99.90;;;;;;4954994;28;20055;-65
2023/02/22 11:41:15;;;;;;;7.03;4.47;;;0.70;99.90;;;;;;4955804;28;20061;-66
2023/02/22 11:43:47;;;;;;;7.97;4.47;;;0.70;99.90;;;;;;4951708;28;20062;-66
2023/02/22 11:46:20;;;;;;;5.85;4.80;;;0.70;99.90;;;;;;4956693;28;20511;-66
2023/02/22 11:49:04;;;;;;;8.30;4.15;;;0.70;99.90;;;;;;4955711;28;20075;-66
2023/02/22 11:51:34;;;;;;;11.52;5.40;;;0.80;99.90;;;;;;4954828;28;20050;-66
2023/02/22 11:54:31;;;;;;;5.97;4.10;;;0.80;99.90;;;;;;4956332;28;20138;-66
2023/02/22 11:57:15;;;;;;;7.70;4.00;;;0.80;99.90;;;;;;4948163;28;20089;-68
2023/02/22 12:00:23;;;;;;;9.35;5.30;;;0.80;99.90;;;;;;4953280;28;20065;-66
2023/02/22 12:03:05;;;;;;;12.50;5.28;;;0.70;99.90;;;;;;4953759;28;20133;-65
2023/02/22 12:06:10;;;;;;;11.32;4.82;;;0.80;99.90;;;;;;4953099;28;20485;-68
2023/02/22 12:08:55;;;;;;;8.48;4.53;;;0.90;99.90;;;;;;4957685;28;20073;-66
2023/02/22 12:11:49;;;;;;;10.23;5.75;;;1.00;99.90;;;;;;4952658;28;20200;-66
2023/02/22 12:14:38;;;;;;;8.80;4.15;;;1.10;99.90;;;;;;4941560;28;20412;-66
2023/02/22 12:17:19;;;;;;;9.77;4.70;;;1.10;99.90;;;;;;4953720;28;20051;-67
2023/02/22 12:20:09;;;;;;;12.23;6.03;;;1.10;99.90;;;;;;4957607;28;20061;-66
2023/02/22 12:22:52;;;;;;;7.95;4.68;;;1.10;99.90;;;;;;4956564;28;20524;-68
2023/02/22 12:25:25;;;;;;;7.32;4.22;;;1.00;99.90;;;;;;4953371;28;20066;-66
2023/02/22 12:28:01;;;;;;;9.63;4.60;;;0.90;99.90;;;;;;4954254;28;20051;-66
2023/02/22 12:30:41;;;;;;;8.25;4.55;;;0.90;99.90;;;;;;4955983;28;20082;-64
2023/02/22 12:33:14;;;;;;;7.60;4.07;;;0.90;99.90;;;;;;4952575;28;20054;-65
2023/02/22 12:35:53;;;;;;;15.15;5.43;;;0.80;99.90;;;;;;4953823;28;20066;-65
2023/02/22 12:38:40;;;;;;;5.50;4.45;;;0.70;99.90;;;;;;4955437;28;20054;-65
2023/02/22 12:41:12;;;;;;;8.10;5.63;;;0.60;99.90;;;;;;4954629;28;20157;-64
2023/02/22 12:43:43;;;;;;;9.07;4.93;;;0.60;99.90;;;;;;4955033;28;20047;-67
2023/02/22 12:46:25;;;;;;;10.40;5.30;;;0.50;99.90;;;;;;4955874;28;20543;-65
2023/02/22 12:49:17;;;;;;;9.27;5.45;;;0.50;99.90;;;;;;4956256;28;20059;-66
2023/02/22 12:52:09;;;;;;;8.23;5.70;;;0.50;99.90;;;;;;4953147;28;20085;-66
2023/02/22 12:54:58;;;;;;;7.53;5.43;;;0.60;99.90;;;;;;4954321;28;20446;-64
2023/02/22 12:57:44;;;;;;;8.20;4.72;;;0.50;99.90;;;;;;4951941;28;20054;-65
2023/02/22 13:00:24;;;;;;;12.02;5.32;;;0.50;99.90;;;;;;4951749;28;21641;-64
2023/02/22 13:03:16;;;;;;;9.15;5.18;;;0.40;99.90;;;;;;4955492;28;20714;-64
2023/02/22 13:05:48;;;;;;;10.80;5.70;;;0.50;99.90;;;;;;4952825;28;20094;-65
2023/02/22 13:08:40;;;;;;;7.47;4.50;;;0.50;99.90;;;;;;4954862;28;20066;-67
2023/02/22 13:11:18;;;;;;;7.15;5.53;;;0.50;99.90;;;;;;4954308;28;20400;-66
2023/02/22 13:14:22;;;;;;;7.35;4.63;;;0.40;99.90;;;;;;4958041;28;20050;-65
2023/02/22 13:17:23;;;;;;;6.50;5.22;;;0.40;99.90;;;;;;4958725;28;20078;-64
2023/02/22 13:19:57;;;;;;;7.97;4.80;;;0.30;99.90;;;;;;4957128;28;20043;-65